Stornoway — WDC7908 — position and weather

sailwx.info

Track history (hours):
 
Tides and Currents Weather Stations Pressure Air Temp Water Temp Dewpoint Dewpoint Depression Visibility Wind Speed Wind Dir Waves Ship Positions

Stornoway

Owner: Matthews, William R, Bainbridge Island, WA. More information available from US FCC via Universal Licensing System and Coast Guard Vessel Documentation Center.

Last reported at 2017-Jun-07 23:25 UTC. Time now 2017-Jun-23 01:52 UTC.
Position N 47°42' W 122°32'.
Warning: this ship's position is 15 days out of date.

Length 13 m.

Type: Pleasure craft. MMSI: 367078810.

Date/timePositionNaut miles runAvg speedWind from/ knotsBaromVisibWave heightAir tempDewpointWater temp
2017-Jun-07 23:25N 47°42' W 122°32'3 7.8
2017-Jun-07 23:00N 47°45' W 122°29'4 8.3
2017-Jun-07 22:30N 47°49' W 122°28'4 9.1
2017-Jun-07 22:00N 47°53' W 122°30'38 1.3
2017-Jun-06 16:05N 48°26' W 122°57'111.0
2017-Jun-06 15:59N 48°28' W 122°57'510.0
2017-Jun-06 15:30N 48°32' W 122°56'3 6.5
2017-Jun-06 15:00N 48°35' W 122°56'3 0.1
2017-Jun-04 17:03N 48°38' W 122°58'0 3.1
2017-Jun-04 17:00N 48°38' W 122°58'1 0.1
2017-Jun-04 09:19N 48°37' W 122°59'0 0.0
2017-Jun-04 02:34N 48°37' W 122°59'0 0.0
2017-Jun-04 00:10N 48°37' W 122°59'2 0.4
2017-Jun-03 18:20N 48°35' W 123°01'3 8.1
2017-Jun-03 18:00N 48°33' W 123°01'0 0.8
2017-Jun-03 17:30N 48°32' W 123°01'0 0.0
2017-Jun-03 17:00N 48°32' W 123°01'0 0.0
2017-Jun-03 16:27N 48°32' W 123°01'0 0.0
2017-Jun-03 16:00N 48°32' W 123°01'0 0.0
2017-Jun-03 15:30N 48°32' W 123°01'0 0.0
2017-Jun-03 15:00N 48°32' W 123°01'0 0.0
2017-Jun-03 14:00N 48°32' W 123°01'0 0.0
2017-Jun-03 13:30N 48°32' W 123°01'0 0.0
2017-Jun-03 13:00N 48°32' W 123°01'0 0.0
2017-Jun-03 12:30N 48°32' W 123°01'0 0.0
2017-Jun-03 12:00N 48°32' W 123°01'0 0.0
2017-Jun-03 11:27N 48°32' W 123°01'0 0.0
2017-Jun-03 10:53N 48°32' W 123°01'0 0.0
2017-Jun-03 10:30N 48°32' W 123°01'0 0.0
2017-Jun-03 09:57N 48°32' W 123°01'0 0.0
2017-Jun-03 09:28N 48°32' W 123°01'0 0.0
2017-Jun-03 09:00N 48°32' W 123°01'0 0.0
2017-Jun-03 08:30N 48°32' W 123°01'0 0.0
2017-Jun-03 08:00N 48°32' W 123°01'0 0.0
2017-Jun-03 07:30N 48°32' W 123°01'0 0.0
2017-Jun-03 07:00N 48°32' W 123°01'0 0.0
2017-Jun-03 06:30N 48°32' W 123°01'0 0.0
2017-Jun-03 06:00N 48°32' W 123°01'0 0.0
2017-Jun-03 05:30N 48°32' W 123°01'0 0.0
2017-Jun-03 04:57N 48°32' W 123°01'0 0.0
2017-Jun-03 04:31N 48°32' W 123°01'0 0.2
2017-Jun-03 03:59N 48°32' W 123°01'0 0.0
2017-Jun-03 03:29N 48°32' W 123°01'0 0.0
2017-Jun-03 02:56N 48°32' W 123°01'0 0.0
2017-Jun-03 02:26N 48°32' W 123°01'0 0.0
2017-Jun-03 01:59N 48°32' W 123°01'0 0.0
2017-Jun-03 01:29N 48°32' W 123°01'0 0.0
2017-Jun-03 01:00N 48°32' W 123°01'0 0.0
2017-Jun-03 00:29N 48°32' W 123°01'0 0.0
2017-Jun-02 23:59N 48°32' W 123°01'0 0.0
2017-Jun-02 23:29N 48°32' W 123°01'0 0.0
2017-Jun-02 22:59N 48°32' W 123°01'0 0.0
2017-Jun-02 22:26N 48°32' W 123°01'0 0.0
2017-Jun-02 21:59N 48°32' W 123°01'2 4.4
2017-Jun-02 21:30N 48°32' W 122°58'4 8.5
2017-Jun-02 21:00N 48°27' W 122°57'3 0.1
2017-Jun-02 00:22N 48°26' W 122°53'32 9.5
2017-Jun-01 21:01N 47°57' W 122°34'110.0
2017-Jun-01 20:57N 47°57' W 122°33'4 9.8
2017-Jun-01 20:30N 47°53' W 122°30'4 9.0
2017-Jun-01 20:00N 47°49' W 122°28'5 9.0
2017-Jun-01 19:30N 47°44' W 122°29'  
Track history (hours):
 
Tides and Currents Weather Stations Pressure Air Temp Water Temp Dewpoint Dewpoint Depression Visibility Wind Speed Wind Dir Waves Ship Positions

Stornoway

Owner: Matthews, William R, Bainbridge Island, WA. More information available from US FCC via Universal Licensing System and Coast Guard Vessel Documentation Center.

Last reported at 2017-Jun-07 23:25 UTC. Time now 2017-Jun-23 01:52 UTC.
Position N 47°42' W 122°32'.
Warning: this ship's position is 15 days out of date.

Length 13 m.

Type: Pleasure craft. MMSI: 367078810.

Date/timePositionNaut miles runAvg speedWind from/ knotsBaromVisibWave heightAir tempDewpointWater temp
2017-Jun-07 23:25N 47°42' W 122°32'3 7.8
2017-Jun-07 23:00N 47°45' W 122°29'4 8.3
2017-Jun-07 22:30N 47°49' W 122°28'4 9.1
2017-Jun-07 22:00N 47°53' W 122°30'38 1.3
2017-Jun-06 16:05N 48°26' W 122°57'111.0
2017-Jun-06 15:59N 48°28' W 122°57'510.0
2017-Jun-06 15:30N 48°32' W 122°56'3 6.5
2017-Jun-06 15:00N 48°35' W 122°56'3 0.1
2017-Jun-04 17:03N 48°38' W 122°58'0 3.1
2017-Jun-04 17:00N 48°38' W 122°58'1 0.1
2017-Jun-04 09:19N 48°37' W 122°59'0 0.0
2017-Jun-04 02:34N 48°37' W 122°59'0 0.0
2017-Jun-04 00:10N 48°37' W 122°59'2 0.4
2017-Jun-03 18:20N 48°35' W 123°01'3 8.1
2017-Jun-03 18:00N 48°33' W 123°01'0 0.8
2017-Jun-03 17:30N 48°32' W 123°01'0 0.0
2017-Jun-03 17:00N 48°32' W 123°01'0 0.0
2017-Jun-03 16:27N 48°32' W 123°01'0 0.0
2017-Jun-03 16:00N 48°32' W 123°01'0 0.0
2017-Jun-03 15:30N 48°32' W 123°01'0 0.0
2017-Jun-03 15:00N 48°32' W 123°01'0 0.0
2017-Jun-03 14:00N 48°32' W 123°01'0 0.0
2017-Jun-03 13:30N 48°32' W 123°01'0 0.0
2017-Jun-03 13:00N 48°32' W 123°01'0 0.0
2017-Jun-03 12:30N 48°32' W 123°01'0 0.0
2017-Jun-03 12:00N 48°32' W 123°01'0 0.0
2017-Jun-03 11:27N 48°32' W 123°01'0 0.0
2017-Jun-03 10:53N 48°32' W 123°01'0 0.0
2017-Jun-03 10:30N 48°32' W 123°01'0 0.0
2017-Jun-03 09:57N 48°32' W 123°01'0 0.0
2017-Jun-03 09:28N 48°32' W 123°01'0 0.0
2017-Jun-03 09:00N 48°32' W 123°01'0 0.0
2017-Jun-03 08:30N 48°32' W 123°01'0 0.0
2017-Jun-03 08:00N 48°32' W 123°01'0 0.0
2017-Jun-03 07:30N 48°32' W 123°01'0 0.0
2017-Jun-03 07:00N 48°32' W 123°01'0 0.0
2017-Jun-03 06:30N 48°32' W 123°01'0 0.0
2017-Jun-03 06:00N 48°32' W 123°01'0 0.0
2017-Jun-03 05:30N 48°32' W 123°01'0 0.0
2017-Jun-03 04:57N 48°32' W 123°01'0 0.0
2017-Jun-03 04:31N 48°32' W 123°01'0 0.2
2017-Jun-03 03:59N 48°32' W 123°01'0 0.0
2017-Jun-03 03:29N 48°32' W 123°01'0 0.0
2017-Jun-03 02:56N 48°32' W 123°01'0 0.0
2017-Jun-03 02:26N 48°32' W 123°01'0 0.0
2017-Jun-03 01:59N 48°32' W 123°01'0 0.0
2017-Jun-03 01:29N 48°32' W 123°01'0 0.0
2017-Jun-03 01:00N 48°32' W 123°01'0 0.0
2017-Jun-03 00:29N 48°32' W 123°01'0 0.0
2017-Jun-02 23:59N 48°32' W 123°01'0 0.0
2017-Jun-02 23:29N 48°32' W 123°01'0 0.0
2017-Jun-02 22:59N 48°32' W 123°01'0 0.0
2017-Jun-02 22:26N 48°32' W 123°01'0 0.0
2017-Jun-02 21:59N 48°32' W 123°01'2 4.4
2017-Jun-02 21:30N 48°32' W 122°58'4 8.5
2017-Jun-02 21:00N 48°27' W 122°57'3 0.1
2017-Jun-02 00:22N 48°26' W 122°53'32 9.5
2017-Jun-01 21:01N 47°57' W 122°34'110.0
2017-Jun-01 20:57N 47°57' W 122°33'4 9.8
2017-Jun-01 20:30N 47°53' W 122°30'4 9.0
2017-Jun-01 20:00N 47°49' W 122°28'5 9.0
2017-Jun-01 19:30N 47°44' W 122°29'  

Dump ship's entire track history